Strona główna
METAR-TAF:

METAR-TAF

Lotnisko :

Port lotniczy Jekaterynburg

Jekaterynburg, Rosja

Szerokość geograficzna: 56-50N, Długość geograficzna: 060-38E, wysokość: 237 m

Aktualna obserwacja pogody

Raport powstał 14 minut temu, godzina 09:00 UTC
Wiatr 12 kt od północ, zmienny między północno-północny zachód i północny wschód
Temperatura 15°C
Wilgotność 55%
Ciśnienie 1018 hPa
Widzialność 10 km lub więcej
Rozproszone chmury na wysokości 4500 ft

METAR: USSS 190900Z 36006MPS 340V040 9999 SCT045 15/06 Q1018 R26L/010060 R26R/010060 NOSIG RMK QFE743/0991

czas: 14:14 (09:14 UTC)

Prognoza

Raport powstał 1 godzina i 21 minut temu, godzina 07:53 UTC
Prognoza ważna od 19 godzina 09 UTC do 20 godzina 09 UTC
Wiatr 6 kt od północ w porywach dochodzący do 23 kt
Widzialność 10 km lub więcej
Rozproszone chmury na wysokości 2000 ft
Stopniowe zmiany
od 19 godzina 16 UTC do 19 godzina 18 UTC
Wiatr 6 kt od zachód
Widzialność: 5000 m
zamglenie

TAF: USSS 190753Z 1909/2009 36003G12MPS 9999 SCT020 BECMG 1916/1918 27003MPS 5000 BR

Obserwacja i prognoza pogody dla ponad 4000 lotnisk (raport METAR i TAF).

Dostępne stacje oznaczono żółtymi i czerwonymi punktami na mapie.

Najedź kursorem aby zobaczyć nazwę stacji.

Kliknij aby zobaczyć obserwacje i prognozy pogody.

Aby zmienić mapę: kliknij na zielony przycisk z czarnym krzyżykiem, aby powiększyć; na zielony przycisk z myślnikiem, aby pomniejszyć; na zielone strzałki, aby przejść do map sąsiednich.


METAR-TAF: